Time;durP1;ratioP1;P1;durP2;ratioP2;P2;SDS_P1;SDS_P2;PMS_P1;PMS_P2;Temp;Humidity;BMP_temperature;BMP_pressure;BME280_temperature;BME280_humidity;BME280_pressure;Samples;Min_cycle;Max_cycle;Signal;HPM_P1;HPM_P2
2022/08/11 00:00:00;;;;;;;3.90;3.10;;;24.80;38.90;;;;;;5033220;28;20850;-48
2022/08/11 00:02:35;;;;;;;7.33;3.33;;;24.80;39.10;;;;;;5033779;28;20455;-49
2022/08/11 00:05:08;;;;;;;3.30;2.90;;;24.80;38.80;;;;;;5032773;28;20441;-47
2022/08/11 00:07:44;;;;;;;2.90;2.70;;;24.50;39.30;;;;;;5033357;28;20436;-46
2022/08/11 00:10:12;;;;;;;3.43;3.23;;;24.50;39.40;;;;;;5033295;28;20507;-49
2022/08/11 00:12:38;;;;;;;3.60;3.40;;;24.50;39.50;;;;;;5033618;28;20428;-45
2022/08/11 00:15:05;;;;;;;4.20;3.03;;;24.40;39.40;;;;;;5032842;28;20789;-47
2022/08/11 00:17:32;;;;;;;3.30;3.00;;;24.40;39.40;;;;;;5033438;28;20421;-45
2022/08/11 00:20:10;;;;;;;3.30;3.10;;;24.30;39.40;;;;;;5033073;28;20479;-50
2022/08/11 00:22:40;;;;;;;3.70;3.40;;;24.30;39.80;;;;;;5033514;28;20478;-47
2022/08/11 00:25:17;;;;;;;2.93;2.63;;;24.20;40.10;;;;;;5031014;28;20795;-48
2022/08/11 00:27:45;;;;;;;4.00;3.70;;;24.20;39.90;;;;;;5033505;28;20507;-47
2022/08/11 00:30:12;;;;;;;3.83;3.40;;;24.20;39.90;;;;;;5032712;28;20466;-49
2022/08/11 00:32:40;;;;;;;3.27;3.07;;;24.20;39.90;;;;;;5033349;28;20803;-49
2022/08/11 00:35:12;;;;;;;3.77;3.47;;;24.10;39.70;;;;;;5032307;28;20798;-49
2022/08/11 00:37:43;;;;;;;4.87;3.70;;;24.00;39.70;;;;;;5033045;28;20494;-49
2022/08/11 00:40:18;;;;;;;5.80;4.53;;;24.10;39.70;;;;;;5032557;28;20990;-49
2022/08/11 00:42:59;;;;;;;4.93;3.70;;;24.10;40.00;;;;;;5033304;28;20458;-49
2022/08/11 00:45:38;;;;;;;4.23;3.83;;;24.10;40.50;;;;;;5032082;28;20927;-48
2022/08/11 00:48:19;;;;;;;4.30;3.90;;;23.80;40.50;;;;;;5032716;28;20794;-50
2022/08/11 00:51:05;;;;;;;4.07;3.67;;;23.70;40.80;;;;;;5030968;28;20420;-49
2022/08/11 00:53:48;;;;;;;3.50;3.17;;;23.70;40.70;;;;;;5031922;28;20420;-45
2022/08/11 00:56:19;;;;;;;4.07;3.77;;;23.70;40.80;;;;;;5032822;28;20443;-45
2022/08/11 00:59:00;;;;;;;4.50;4.10;;;23.60;41.10;;;;;;5032639;28;20483;-45
2022/08/11 01:02:03;;;;;;;7.43;3.50;;;23.50;41.10;;;;;;5032763;28;20482;-45
2022/08/11 01:04:57;;;;;;;4.57;3.00;;;23.50;41.00;;;;;;5031547;28;20486;-45
2022/08/11 01:07:40;;;;;;;4.90;4.50;;;23.40;41.40;;;;;;5032670;28;20812;-45
2022/08/11 01:10:12;;;;;;;6.80;5.00;;;23.30;41.70;;;;;;5031784;28;20527;-45
2022/08/11 01:12:59;;;;;;;10.40;6.23;;;23.20;41.90;;;;;;5032484;28;20608;-45
2022/08/11 01:15:28;;;;;;;8.60;4.90;;;23.30;41.90;;;;;;5031572;28;20442;-45
2022/08/11 01:18:08;;;;;;;5.20;4.00;;;23.30;41.80;;;;;;5030995;28;20428;-45
2022/08/11 01:21:08;;;;;;;4.70;3.67;;;23.20;41.80;;;;;;5031973;28;20996;-45
2022/08/11 01:23:55;;;;;;;4.20;3.90;;;23.30;41.90;;;;;;5031303;28;20444;-46
2022/08/11 01:26:43;;;;;;;5.00;3.80;;;23.40;41.80;;;;;;5032395;28;20435;-45
2022/08/11 01:29:59;;;;;;;6.00;3.40;;;23.40;41.90;;;;;;5031693;28;20610;-48
2022/08/11 01:32:40;;;;;;;4.33;3.63;;;23.50;41.90;;;;;;5032163;28;20516;-49
2022/08/11 01:35:20;;;;;;;4.60;3.93;;;23.40;42.50;;;;;;5031143;28;20427;-48
2022/08/11 01:38:00;;;;;;;6.20;3.60;;;23.30;42.60;;;;;;5032122;28;20472;-48
2022/08/11 01:40:55;;;;;;;3.53;3.27;;;23.30;42.40;;;;;;5031378;28;20514;-45
2022/08/11 01:46:39;;;;;;;4.40;3.57;;;23.10;42.20;;;;;;5032142;28;20814;-49
2022/08/11 01:49:14;;;;;;;5.10;4.60;;;23.10;42.10;;;;;;5031480;28;20504;-45
2022/08/11 01:52:01;;;;;;;4.97;4.47;;;23.10;42.20;;;;;;5030484;28;20898;-48
2022/08/11 01:54:36;;;;;;;4.47;4.07;;;23.10;42.40;;;;;;5030694;28;20436;-48
2022/08/11 01:57:52;;;;;;;5.40;3.97;;;22.90;43.00;;;;;;5031553;28;20447;-45
2022/08/11 02:00:27;;;;;;;4.97;4.50;;;23.00;42.80;;;;;;5007942;28;20983;-45
2022/08/11 02:03:09;;;;;;;5.10;3.90;;;23.10;42.60;;;;;;5031538;28;20426;-45
2022/08/11 02:05:50;;;;;;;7.80;4.20;;;23.20;42.40;;;;;;5030970;28;20820;-45
2022/08/11 02:08:43;;;;;;;5.90;4.10;;;23.20;42.30;;;;;;5031776;28;21068;-47
2022/08/11 02:11:34;;;;;;;4.17;3.87;;;23.20;42.40;;;;;;5029901;28;20455;-45
2022/08/11 02:14:12;;;;;;;4.10;3.77;;;23.10;42.70;;;;;;5030578;28;20435;-45
2022/08/11 02:17:00;;;;;;;3.53;3.23;;;23.00;43.00;;;;;;5031233;28;20910;-47
2022/08/11 02:26:13;;;;;;;3.70;3.43;;;22.50;44.10;;;;;;5030612;28;20522;-47
2022/08/11 02:28:41;;;;;;;4.07;3.70;;;22.40;44.10;;;;;;5030452;28;20432;-49
2022/08/11 02:34:38;;;;;;;6.10;4.10;;;22.50;44.00;;;;;;5030125;28;20519;-49
2022/08/11 02:37:14;;;;;;;4.17;3.77;;;22.50;44.20;;;;;;5029543;28;20812;-48
2022/08/11 02:40:13;;;;;;;6.23;4.23;;;22.40;44.30;;;;;;5030481;28;20848;-49
2022/08/11 02:42:55;;;;;;;4.60;4.20;;;22.50;44.30;;;;;;5022121;28;20448;-49
2022/08/11 02:45:32;;;;;;;5.37;4.20;;;22.40;44.40;;;;;;5029675;28;21242;-47
2022/08/11 02:51:30;;;;;;;6.23;3.97;;;22.30;44.60;;;;;;5031052;28;20489;-45
2022/08/11 02:54:16;;;;;;;4.40;4.10;;;22.30;44.20;;;;;;5010686;28;20501;-45
2022/08/11 02:56:50;;;;;;;3.67;3.37;;;22.40;44.30;;;;;;5030645;28;20494;-46
2022/08/11 02:59:50;;;;;;;4.53;3.70;;;22.40;44.30;;;;;;5030445;28;20559;-48
2022/08/11 03:02:30;;;;;;;15.17;10.37;;;22.30;44.40;;;;;;5030736;28;20454;-49
2022/08/11 03:05:16;;;;;;;11.80;7.90;;;22.40;44.40;;;;;;5028352;28;20435;-47
2022/08/11 03:08:01;;;;;;;7.90;6.13;;;22.30;44.60;;;;;;5030549;28;20841;-45
2022/08/11 03:16:53;;;;;;;4.13;3.73;;;22.20;44.70;;;;;;5028158;28;20899;-44
2022/08/11 03:19:40;;;;;;;4.27;3.97;;;22.20;44.60;;;;;;5027790;28;20528;-45
2022/08/11 03:22:38;;;;;;;4.03;3.73;;;22.10;44.90;;;;;;5029727;28;20436;-44
2022/08/11 03:25:20;;;;;;;5.30;4.20;;;22.10;44.90;;;;;;5029387;28;20439;-48
2022/08/11 03:27:52;;;;;;;4.20;3.80;;;22.10;45.00;;;;;;5030535;28;20431;-44
2022/08/11 03:30:24;;;;;;;3.70;3.40;;;22.10;45.10;;;;;;5029102;28;20983;-45
2022/08/11 03:36:03;;;;;;;4.80;4.40;;;22.00;45.20;;;;;;5033917;28;20451;-46
2022/08/11 03:38:47;;;;;;;4.97;4.40;;;22.00;45.10;;;;;;5033487;28;20472;-45
2022/08/11 03:44:42;;;;;;;5.30;4.13;;;21.80;45.80;;;;;;5033145;28;21095;-47
2022/08/11 03:47:38;;;;;;;4.43;4.03;;;21.80;45.60;;;;;;5018085;28;20455;-46
2022/08/11 03:50:23;;;;;;;4.30;3.90;;;21.90;45.30;;;;;;5033529;28;20455;-45
2022/08/11 03:53:07;;;;;;;3.83;3.40;;;21.70;46.10;;;;;;5033962;28;20439;-48
2022/08/11 03:55:53;;;;;;;4.23;3.93;;;21.60;46.20;;;;;;5033741;28;20427;-47
2022/08/11 03:58:49;;;;;;;4.27;3.63;;;21.60;46.20;;;;;;5032355;28;20471;-47
2022/08/11 04:01:44;;;;;;;3.80;3.50;;;21.70;46.10;;;;;;5033868;28;20946;-48
2022/08/11 04:04:43;;;;;;;4.20;3.77;;;21.80;45.80;;;;;;5032873;28;20930;-48
2022/08/11 04:07:27;;;;;;;4.63;4.23;;;21.80;45.60;;;;;;5033850;28;20431;-49
2022/08/11 04:10:08;;;;;;;4.30;3.90;;;21.80;45.60;;;;;;5033181;28;20836;-47
2022/08/11 04:13:17;;;;;;;4.60;3.60;;;21.80;45.60;;;;;;5033971;28;20969;-45
2022/08/11 04:15:59;;;;;;;3.67;3.37;;;21.80;45.80;;;;;;5033185;28;20434;-48
2022/08/11 04:18:46;;;;;;;4.13;3.83;;;21.70;46.10;;;;;;5033486;28;20424;-49
2022/08/11 04:21:45;;;;;;;4.73;3.53;;;21.50;46.90;;;;;;5033731;28;20440;-49
2022/08/11 04:24:30;;;;;;;4.60;3.80;;;21.50;46.90;;;;;;5030830;28;20471;-49
2022/08/11 04:27:26;;;;;;;3.50;3.20;;;21.50;47.00;;;;;;5033202;28;20428;-46
2022/08/11 04:30:16;;;;;;;5.47;4.40;;;21.60;47.00;;;;;;5032721;28;20517;-48
2022/08/11 04:32:50;;;;;;;3.40;3.17;;;21.60;46.80;;;;;;5033333;28;20816;-46
2022/08/11 04:35:31;;;;;;;4.00;3.70;;;21.60;46.50;;;;;;5032826;28;20438;-46
2022/08/11 04:38:35;;;;;;;4.57;3.67;;;21.60;46.50;;;;;;5033060;28;20889;-46
2022/08/11 04:45:10;;;;;;;5.77;4.33;;;21.40;46.90;;;;;;5031847;28;20574;-47
2022/08/11 05:03:34;;;;;;;5.00;4.57;;;21.70;46.40;;;;;;5024914;28;20510;-46
2022/08/11 05:06:18;;;;;;;7.00;4.20;;;21.70;46.30;;;;;;5032356;28;20543;-47
2022/08/11 05:09:06;;;;;;;4.83;4.20;;;21.70;46.20;;;;;;5032191;28;20985;-48
2022/08/11 05:11:51;;;;;;;5.10;4.43;;;21.90;46.10;;;;;;5032740;28;20435;-49
2022/08/11 05:37:41;;;;;;;8.87;4.83;;;22.00;46.50;;;;;;5032064;28;20497;-45
2022/08/11 05:57:20;;;;;;;5.23;3.90;;;22.70;45.20;;;;;;5031460;28;20454;-46
2022/08/11 05:59:47;;;;;;;5.10;4.60;;;22.80;44.90;;;;;;5031127;28;20578;-49
2022/08/11 06:02:13;;;;;;;5.10;4.60;;;22.90;44.80;;;;;;5031749;28;20493;-44
2022/08/11 06:04:39;;;;;;;4.50;4.10;;;23.10;44.60;;;;;;5030727;28;20440;-48
2022/08/11 06:07:08;;;;;;;5.50;4.20;;;23.10;44.50;;;;;;5031485;28;20450;-46
2022/08/11 06:09:37;;;;;;;3.83;3.53;;;23.20;44.60;;;;;;5030830;28;20444;-48
2022/08/11 06:12:15;;;;;;;6.57;4.10;;;23.40;44.30;;;;;;5029850;28;20455;-48
2022/08/11 06:14:44;;;;;;;4.80;4.40;;;23.50;44.40;;;;;;5030512;28;20455;-46
2022/08/11 06:17:12;;;;;;;5.47;3.90;;;23.60;43.50;;;;;;5031341;28;20463;-49
2022/08/11 06:19:40;;;;;;;9.27;4.20;;;23.50;43.20;;;;;;5030726;28;20487;-49
2022/08/11 06:22:10;;;;;;;4.20;3.80;;;23.70;43.30;;;;;;5031287;28;20424;-47
2022/08/11 06:24:41;;;;;;;10.53;4.13;;;23.70;42.80;;;;;;5030310;28;20424;-48
2022/08/11 06:27:07;;;;;;;3.83;3.53;;;23.90;42.70;;;;;;5030933;28;20428;-45
2022/08/11 06:29:40;;;;;;;4.20;3.80;;;24.00;42.40;;;;;;5030338;28;20527;-47
2022/08/11 06:32:11;;;;;;;4.40;4.10;;;24.20;42.30;;;;;;5031081;28;20862;-46
2022/08/11 06:35:00;;;;;;;4.60;4.10;;;24.40;41.80;;;;;;5030278;28;20435;-48
2022/08/11 06:37:35;;;;;;;6.10;4.87;;;24.60;41.60;;;;;;5029129;28;20470;-48
2022/08/11 06:40:08;;;;;;;4.80;4.40;;;24.80;41.20;;;;;;5030461;28;20557;-48
2022/08/11 06:42:45;;;;;;;4.47;4.07;;;25.10;41.00;;;;;;5031146;28;20438;-48
2022/08/11 06:45:38;;;;;;;10.37;4.03;;;25.30;40.60;;;;;;5030400;28;20431;-49
2022/08/11 06:48:08;;;;;;;4.40;3.73;;;25.50;40.10;;;;;;5030828;28;20436;-46
2022/08/11 06:53:19;;;;;;;4.30;3.90;;;25.80;39.60;;;;;;5030674;28;20810;-46
2022/08/11 07:01:45;;;;;;;6.63;4.10;;;26.30;38.90;;;;;;5030949;28;20443;-48
2022/08/11 07:04:13;;;;;;;3.80;3.40;;;26.60;38.70;;;;;;5028809;28;20463;-45
2022/08/11 07:15:43;;;;;;;3.90;3.60;;;27.40;37.60;;;;;;5054549;28;20569;-45
2022/08/11 07:30:34;;;;;;;3.67;3.13;;;27.70;35.50;;;;;;5053591;28;20437;-47
2022/08/11 07:33:02;;;;;;;5.20;3.77;;;27.80;35.60;;;;;;5053109;28;20431;-45
2022/08/11 07:35:34;;;;;;;3.63;3.33;;;28.00;35.40;;;;;;5053782;28;20412;-47
2022/08/11 07:38:03;;;;;;;3.50;3.03;;;28.20;35.40;;;;;;5054255;28;20458;-46
2022/08/11 07:40:29;;;;;;;4.40;3.70;;;28.20;35.30;;;;;;5053468;28;20470;-45
2022/08/11 07:42:57;;;;;;;6.03;3.73;;;28.40;34.90;;;;;;5053794;28;20808;-46
2022/08/11 07:53:40;;;;;;;4.20;3.60;;;28.40;34.80;;;;;;5045608;28;20478;-45
2022/08/11 07:56:06;;;;;;;3.90;3.43;;;28.50;34.50;;;;;;5033993;28;20915;-49
2022/08/11 08:17:59;;;;;;;4.03;3.23;;;30.10;31.70;;;;;;5033020;28;20547;-45
2022/08/11 08:20:39;;;;;;;4.23;3.93;;;29.90;31.60;;;;;;5032879;28;20849;-45
2022/08/11 08:23:06;;;;;;;4.03;3.60;;;30.00;31.70;;;;;;5033159;28;20435;-49
2022/08/11 08:25:34;;;;;;;2.97;2.77;;;30.10;31.70;;;;;;5031241;28;20489;-45
2022/08/11 08:28:04;;;;;;;3.70;3.40;;;29.80;30.90;;;;;;5033651;28;20514;-47
2022/08/11 08:30:49;;;;;;;3.77;3.47;;;30.00;30.60;;;;;;5032626;28;20431;-45
2022/08/11 08:33:31;;;;;;;3.63;3.20;;;29.80;31.60;;;;;;5033031;28;20436;-46
2022/08/11 08:36:14;;;;;;;3.80;3.50;;;30.10;30.70;;;;;;5033399;28;20467;-46
2022/08/11 08:38:55;;;;;;;5.73;3.23;;;30.40;31.00;;;;;;5032195;28;20528;-45
2022/08/11 08:41:30;;;;;;;3.83;2.60;;;30.50;30.00;;;;;;5033272;28;20428;-46
2022/08/11 08:44:01;;;;;;;3.50;2.83;;;30.20;30.10;;;;;;5032491;28;21109;-46
2022/08/11 08:46:34;;;;;;;3.07;2.87;;;30.10;29.70;;;;;;5033002;28;20943;-45
2022/08/11 08:49:02;;;;;;;5.73;3.27;;;30.30;29.20;;;;;;5032341;28;20511;-46
2022/08/11 08:51:34;;;;;;;2.77;2.57;;;30.50;29.30;;;;;;5031373;28;20416;-46
2022/08/11 08:54:09;;;;;;;4.03;3.70;;;30.80;29.10;;;;;;5032050;28;20908;-45
2022/08/11 08:56:37;;;;;;;3.20;3.00;;;31.00;28.50;;;;;;5032681;28;20538;-45
2022/08/11 08:59:04;;;;;;;4.47;3.20;;;31.20;28.40;;;;;;5032086;28;20479;-46
2022/08/11 09:01:37;;;;;;;5.40;2.90;;;31.10;28.10;;;;;;5032755;28;20420;-46
2022/08/11 09:04:12;;;;;;;3.80;2.80;;;31.10;28.40;;;;;;5031926;28;20456;-47
2022/08/11 09:06:39;;;;;;;3.13;2.87;;;31.40;28.40;;;;;;5020727;28;20438;-47
2022/08/11 09:09:11;;;;;;;5.97;3.00;;;31.30;27.30;;;;;;5031905;28;20431;-47
2022/08/11 09:11:50;;;;;;;5.57;2.93;;;31.20;27.70;;;;;;5032636;28;20789;-46
2022/08/11 09:14:59;;;;;;;3.17;2.87;;;31.20;27.40;;;;;;5031623;28;20509;-45
2022/08/11 09:17:12;;;;;;;4.43;2.80;;;31.20;27.60;;;;;;5032381;28;20462;-45
2022/08/11 09:19:39;;;;;;;2.73;2.53;;;31.50;27.80;;;;;;5030341;28;20491;-48
2022/08/11 09:27:38;;;;;;;3.20;3.00;;;31.80;26.90;;;;;;5032294;28;20447;-47
2022/08/11 09:30:05;;;;;;;3.90;2.70;;;32.00;26.70;;;;;;5031381;28;20434;-48
2022/08/11 09:32:33;;;;;;;3.60;3.30;;;32.20;26.70;;;;;;5031908;28;21069;-46
2022/08/11 09:35:01;;;;;;;2.87;2.63;;;32.20;26.10;;;;;;5031571;28;20436;-50
2022/08/11 09:40:29;;;;;;;2.87;2.67;;;32.50;26.10;;;;;;5031649;28;20967;-47
2022/08/11 09:45:50;;;;;;;3.53;2.60;;;32.20;25.70;;;;;;5030324;28;20486;-45
2022/08/11 09:48:20;;;;;;;2.97;2.50;;;31.90;26.00;;;;;;5031701;28;20439;-47
2022/08/11 09:50:55;;;;;;;4.17;2.47;;;31.80;26.10;;;;;;5031910;28;20428;-46
2022/08/11 09:53:22;;;;;;;3.00;2.80;;;31.70;25.80;;;;;;5031517;28;20438;-45
2022/08/11 09:55:49;;;;;;;3.17;2.43;;;31.80;26.00;;;;;;5031285;28;20459;-46
2022/08/11 09:58:16;;;;;;;3.00;2.80;;;32.00;26.20;;;;;;5031567;28;20435;-45
2022/08/11 10:00:45;;;;;;;3.47;2.47;;;32.30;25.80;;;;;;5030873;28;20984;-45
2022/08/11 10:03:24;;;;;;;3.30;2.93;;;32.00;25.60;;;;;;5031255;28;20420;-46
2022/08/11 10:08:43;;;;;;;3.40;2.57;;;32.40;25.40;;;;;;5031173;28;20463;-46
2022/08/11 10:11:12;;;;;;;3.10;2.40;;;32.70;24.60;;;;;;5029925;28;20431;-47
2022/08/11 10:16:29;;;;;;;3.97;3.17;;;33.20;24.20;;;;;;5031763;28;20459;-46
2022/08/11 10:18:58;;;;;;;3.40;2.53;;;33.30;24.20;;;;;;5030695;28;20854;-46
2022/08/11 10:21:39;;;;;;;3.60;2.80;;;33.50;24.30;;;;;;5031394;28;20507;-45
2022/08/11 10:26:53;;;;;;;2.50;2.30;;;34.00;24.40;;;;;;5031525;28;20424;-50
2022/08/11 10:35:13;;;;;;;2.93;2.73;;;34.50;23.30;;;;;;5030789;28;20812;-46
2022/08/11 10:37:41;;;;;;;5.47;2.73;;;34.70;23.50;;;;;;5029640;28;20482;-46
2022/08/11 10:40:09;;;;;;;2.70;2.50;;;34.30;23.60;;;;;;5030282;28;20494;-46
2022/08/11 10:48:06;;;;;;;3.63;2.60;;;35.10;22.70;;;;;;5031151;28;21025;-46
2022/08/11 10:58:50;;;;;;;2.33;2.23;;;34.90;22.40;;;;;;5030546;28;20463;-48
2022/08/11 11:01:33;;;;;;;4.70;2.70;;;35.10;22.00;;;;;;5030580;28;20446;-47
2022/08/11 11:04:37;;;;;;;3.43;3.03;;;35.40;21.80;;;;;;5030026;28;20919;-46
2022/08/11 11:07:15;;;;;;;3.03;2.70;;;35.40;21.60;;;;;;5020949;28;20455;-51
2022/08/11 11:09:46;;;;;;;3.40;2.50;;;35.20;21.50;;;;;;5029869;28;20431;-51
2022/08/11 11:18:14;;;;;;;4.40;2.60;;;35.00;22.10;;;;;;5030747;28;20553;-50
2022/08/11 11:21:05;;;;;;;4.47;2.37;;;34.50;21.60;;;;;;5030088;28;20495;-50
2022/08/11 11:23:49;;;;;;;2.97;2.77;;;34.00;22.40;;;;;;5022972;28;20459;-50
2022/08/11 11:26:34;;;;;;;2.60;2.40;;;34.30;22.20;;;;;;5030779;28;20421;-50
2022/08/11 11:29:19;;;;;;;3.03;2.27;;;34.50;22.00;;;;;;5030108;28;21067;-46
2022/08/11 11:32:16;;;;;;;3.83;2.47;;;34.40;22.00;;;;;;5028763;28;20519;-49
2022/08/11 11:35:17;;;;;;;2.47;2.27;;;34.10;22.60;;;;;;5030179;28;20436;-50
2022/08/11 11:37:47;;;;;;;2.53;2.33;;;34.30;22.30;;;;;;5030644;28;20554;-47
2022/08/11 11:40:20;;;;;;;2.57;2.37;;;34.90;21.90;;;;;;5029642;28;20553;-49
2022/08/11 11:42:47;;;;;;;2.43;2.23;;;35.00;21.00;;;;;;5030346;28;20804;-48
2022/08/11 11:45:18;;;;;;;3.37;2.50;;;34.70;21.20;;;;;;5029745;28;20416;-48
2022/08/11 11:47:45;;;;;;;2.83;2.47;;;35.00;21.20;;;;;;5030529;28;20467;-48
2022/08/11 11:50:12;;;;;;;2.50;2.23;;;35.20;21.40;;;;;;5029617;28;20818;-50
2022/08/11 11:52:39;;;;;;;4.40;2.43;;;35.40;21.10;;;;;;5030690;28;20455;-50
2022/08/11 11:55:05;;;;;;;2.70;2.57;;;35.60;21.00;;;;;;5033515;28;20424;-49
2022/08/11 12:03:08;;;;;;;2.93;2.20;;;35.40;20.90;;;;;;5032302;28;20494;-47
2022/08/11 12:05:35;;;;;;;2.30;2.20;;;35.70;20.80;;;;;;5033196;28;20435;-49
2022/08/11 12:08:10;;;;;;;2.50;2.30;;;36.00;20.70;;;;;;5033749;28;20420;-46
2022/08/11 12:10:37;;;;;;;2.30;2.20;;;36.40;20.80;;;;;;5032860;28;20434;-50
2022/08/11 12:15:51;;;;;;;2.30;2.20;;;36.80;20.20;;;;;;5033420;28;20442;-48
2022/08/11 12:18:17;;;;;;;4.37;2.30;;;36.80;19.90;;;;;;5033913;28;20432;-49
2022/08/11 12:20:44;;;;;;;2.53;2.33;;;36.80;19.50;;;;;;5033030;28;20566;-50
2022/08/11 12:28:42;;;;;;;3.00;2.50;;;36.60;19.40;;;;;;5033143;28;20523;-47
2022/08/11 12:31:11;;;;;;;2.60;2.40;;;36.40;19.50;;;;;;5033421;28;20515;-47
2022/08/11 12:33:39;;;;;;;2.83;2.63;;;36.40;19.40;;;;;;5032287;28;20443;-46
2022/08/11 12:36:08;;;;;;;2.33;2.13;;;36.20;19.60;;;;;;5033165;28;20510;-47
2022/08/11 12:38:35;;;;;;;2.87;2.30;;;35.90;19.60;;;;;;5032378;28;20475;-47
2022/08/11 12:46:34;;;;;;;3.40;2.70;;;36.80;19.30;;;;;;5033300;28;20789;-46
2022/08/11 12:52:17;;;;;;;2.30;2.10;;;36.80;19.10;;;;;;5031190;28;20481;-47
2022/08/11 12:58:17;;;;;;;2.50;2.13;;;37.00;18.80;;;;;;5032829;28;20447;-47
2022/08/11 13:06:17;;;;;;;2.17;2.07;;;36.80;19.00;;;;;;5048336;28;20425;-46
2022/08/11 13:08:45;;;;;;;3.03;2.10;;;36.80;19.20;;;;;;5052303;28;20488;-47
2022/08/11 13:13:56;;;;;;;2.97;2.67;;;37.30;18.30;;;;;;5051726;28;20440;-47
2022/08/11 13:17:19;;;;;;;2.33;2.23;;;37.60;18.40;;;;;;5052472;28;20783;-48
2022/08/11 13:19:20;;;;;;;2.37;2.17;;;37.80;17.60;;;;;;5049951;28;20862;-46
2022/08/11 13:21:47;;;;;;;5.43;2.40;;;37.60;17.80;;;;;;5052462;28;20423;-46
2022/08/11 13:24:13;;;;;;;2.53;2.33;;;37.20;18.20;;;;;;5051633;28;20909;-46
2022/08/11 13:26:39;;;;;;;2.20;2.00;;;37.30;18.30;;;;;;5052260;28;20465;-50
2022/08/11 13:29:05;;;;;;;2.30;2.20;;;37.80;18.20;;;;;;5051735;28;20446;-46
2022/08/11 13:31:32;;;;;;;2.30;2.10;;;37.90;17.80;;;;;;5052289;28;20196;-47
2022/08/11 13:33:59;;;;;;;5.00;2.53;;;37.50;18.20;;;;;;5051126;28;20195;-45
2022/08/11 13:36:27;;;;;;;5.00;2.20;;;37.70;18.00;;;;;;5051963;28;20426;-47
2022/08/11 13:38:54;;;;;;;3.83;2.47;;;38.00;18.20;;;;;;5051369;28;20798;-46
2022/08/11 13:41:40;;;;;;;2.10;1.93;;;37.80;17.60;;;;;;5052196;28;20419;-51
2022/08/11 13:44:08;;;;;;;2.23;2.13;;;36.90;18.20;;;;;;5050948;28;20441;-50
2022/08/11 13:46:35;;;;;;;2.40;2.20;;;36.40;18.90;;;;;;5050223;28;20430;-50
2022/08/11 13:49:01;;;;;;;2.83;2.50;;;36.50;18.90;;;;;;5051535;28;20535;-50
2022/08/11 13:51:32;;;;;;;2.67;2.47;;;36.60;19.00;;;;;;5051784;28;20488;-47
2022/08/11 13:54:11;;;;;;;2.60;2.40;;;36.80;18.60;;;;;;5040869;28;20439;-50
2022/08/11 13:56:41;;;;;;;2.53;2.43;;;36.10;18.70;;;;;;5031666;28;20490;-49
2022/08/11 13:59:07;;;;;;;2.40;2.30;;;36.40;19.50;;;;;;5031262;28;20520;-49
2022/08/11 14:01:40;;;;;;;2.57;2.13;;;37.00;18.50;;;;;;5031694;28;20431;-51
2022/08/11 14:04:19;;;;;;;2.53;2.33;;;37.40;18.00;;;;;;5030569;28;20427;-51
2022/08/11 14:06:50;;;;;;;4.27;2.43;;;37.30;18.20;;;;;;5031865;28;20435;-51
2022/08/11 14:09:21;;;;;;;3.20;2.40;;;37.10;18.10;;;;;;5031344;28;20462;-50
2022/08/11 14:14:34;;;;;;;2.53;2.03;;;37.00;18.00;;;;;;5031202;28;20943;-50
2022/08/11 14:17:06;;;;;;;2.23;2.13;;;37.20;17.80;;;;;;5030892;28;20507;-50
2022/08/11 14:19:38;;;;;;;2.10;2.00;;;37.40;17.90;;;;;;5030950;28;20442;-50
2022/08/11 14:22:08;;;;;;;2.40;2.30;;;37.50;18.00;;;;;;5030897;28;20503;-48
2022/08/11 14:24:37;;;;;;;2.20;2.00;;;37.40;17.80;;;;;;5030838;28;20489;-51
2022/08/11 14:27:05;;;;;;;2.10;2.00;;;37.50;17.80;;;;;;5031488;28;20510;-51
2022/08/11 14:29:33;;;;;;;2.73;2.53;;;37.70;18.00;;;;;;5030978;28;20493;-50
2022/08/11 14:32:02;;;;;;;2.50;2.30;;;37.60;17.90;;;;;;5030749;28;20789;-50
2022/08/11 14:34:30;;;;;;;3.77;1.90;;;37.20;18.00;;;;;;5030926;28;20419;-49
2022/08/11 14:37:02;;;;;;;2.50;2.30;;;37.00;18.00;;;;;;5031065;28;20561;-50
2022/08/11 14:39:34;;;;;;;3.00;2.30;;;37.20;17.90;;;;;;5029167;28;20792;-51
2022/08/11 14:47:37;;;;;;;3.30;2.37;;;36.50;18.00;;;;;;5031218;28;20431;-50
2022/08/11 14:50:06;;;;;;;1.87;1.77;;;36.50;18.60;;;;;;5030244;28;20475;-49
2022/08/11 14:52:36;;;;;;;2.70;2.47;;;37.00;18.40;;;;;;5030553;28;20872;-50
2022/08/11 14:57:48;;;;;;;2.20;2.00;;;37.70;17.60;;;;;;5031060;28;20813;-49
2022/08/11 15:00:15;;;;;;;3.53;2.37;;;38.00;17.50;;;;;;5030475;28;20815;-50
2022/08/11 15:05:27;;;;;;;2.03;1.93;;;37.80;17.40;;;;;;5028662;28;20433;-49
2022/08/11 15:07:54;;;;;;;2.30;2.20;;;37.60;17.40;;;;;;5030723;28;20950;-48
2022/08/11 15:10:21;;;;;;;2.50;2.30;;;37.50;17.70;;;;;;5030225;28;20475;-51
2022/08/11 15:12:47;;;;;;;4.90;1.90;;;37.50;17.30;;;;;;5030677;28;20485;-50
2022/08/11 15:18:04;;;;;;;2.30;2.17;;;36.40;18.30;;;;;;5031045;28;20434;-49
2022/08/11 15:26:07;;;;;;;2.03;1.93;;;37.00;18.20;;;;;;5030784;28;20430;-49
2022/08/11 15:39:36;;;;;;;2.50;2.30;;;36.60;18.60;;;;;;5034220;28;20577;-51
2022/08/11 15:47:58;;;;;;;2.33;2.20;;;36.20;18.70;;;;;;5034787;28;20433;-50
2022/08/11 15:50:30;;;;;;;2.20;2.00;;;36.30;18.70;;;;;;5033636;28;20478;-49
2022/08/11 15:53:02;;;;;;;2.73;2.30;;;36.30;18.80;;;;;;5033569;28;20427;-49
2022/08/11 15:55:29;;;;;;;1.93;1.83;;;36.40;18.70;;;;;;5033670;28;20939;-51
2022/08/11 16:06:24;;;;;;;4.67;2.77;;;36.10;18.80;;;;;;5052368;28;20429;-50
2022/08/11 16:08:52;;;;;;;2.40;2.20;;;36.00;19.00;;;;;;5053320;28;20448;-48
2022/08/11 16:11:20;;;;;;;2.63;2.43;;;35.90;19.00;;;;;;5053690;28;20470;-51
2022/08/11 16:16:14;;;;;;;3.10;2.70;;;35.70;18.90;;;;;;5053688;28;20419;-48
2022/08/11 16:18:55;;;;;;;2.40;2.30;;;35.80;18.90;;;;;;5053038;28;20786;-51
2022/08/11 16:21:26;;;;;;;2.30;2.20;;;35.80;19.20;;;;;;5053642;28;20445;-51
2022/08/11 16:23:55;;;;;;;3.23;2.40;;;35.80;19.10;;;;;;5052352;28;20919;-47
2022/08/11 16:26:22;;;;;;;3.67;2.47;;;35.70;19.20;;;;;;5051986;28;20459;-50
2022/08/11 16:28:58;;;;;;;2.40;2.30;;;35.60;19.00;;;;;;5052721;28;20804;-50
2022/08/11 16:31:26;;;;;;;4.00;2.50;;;35.60;19.00;;;;;;5053401;28;20472;-50
2022/08/11 16:33:54;;;;;;;2.20;2.00;;;35.70;19.00;;;;;;5052287;28;20423;-51
2022/08/11 16:39:08;;;;;;;2.40;2.20;;;36.10;18.80;;;;;;5052283;28;20449;-50
2022/08/11 16:47:14;;;;;;;2.60;2.40;;;35.50;19.20;;;;;;5053528;28;20480;-50
2022/08/11 16:49:50;;;;;;;3.43;2.50;;;35.40;19.40;;;;;;5052451;28;20535;-50
2022/08/11 16:52:17;;;;;;;2.90;2.70;;;35.00;19.60;;;;;;5051021;28;20875;-50
2022/08/11 16:54:44;;;;;;;3.63;2.67;;;35.00;19.70;;;;;;5036190;28;20416;-49
2022/08/11 17:00:04;;;;;;;2.70;2.53;;;34.90;20.30;;;;;;5032465;28;20435;-49
2022/08/11 17:13:54;;;;;;;2.50;2.30;;;34.40;20.10;;;;;;5032053;28;20431;-50
2022/08/11 17:16:28;;;;;;;2.40;2.20;;;34.30;20.20;;;;;;5032725;28;20435;-50
2022/08/11 17:18:57;;;;;;;2.70;2.50;;;34.10;20.30;;;;;;5030196;28;20931;-50
2022/08/11 17:21:34;;;;;;;2.70;2.50;;;34.40;20.50;;;;;;5032616;28;20436;-48
2022/08/11 17:24:05;;;;;;;2.07;1.93;;;34.50;20.40;;;;;;5031848;28;20443;-48
2022/08/11 17:26:57;;;;;;;3.87;2.33;;;34.60;20.20;;;;;;5032585;28;20424;-47
2022/08/11 17:29:34;;;;;;;2.50;2.30;;;34.50;20.20;;;;;;5031742;28;20490;-48
2022/08/11 17:37:35;;;;;;;2.13;2.03;;;34.30;20.30;;;;;;5032245;28;20462;-46
2022/08/11 17:40:04;;;;;;;2.10;1.93;;;34.20;20.30;;;;;;5031687;28;20547;-50
2022/08/11 17:50:49;;;;;;;2.50;2.30;;;34.20;20.60;;;;;;5031558;28;20870;-47
2022/08/11 18:01:35;;;;;;;2.90;2.10;;;33.90;20.80;;;;;;5031598;28;20926;-46
2022/08/11 18:04:05;;;;;;;2.27;2.17;;;33.80;20.90;;;;;;5030823;28;20439;-51
2022/08/11 18:06:33;;;;;;;2.67;2.47;;;33.80;21.10;;;;;;5018639;28;20497;-50
